Time;durP1;ratioP1;P1;durP2;ratioP2;P2;SDS_P1;SDS_P2;PMS_P1;PMS_P2;Temp;Humidity;BMP_temperature;BMP_pressure;BME280_temperature;BME280_humidity;BME280_pressure;Samples;Min_cycle;Max_cycle;Signal;HPM_P1;HPM_P2
2021/05/21 00:02:04;;;;;;;58.35;54.05;;;13.90;99.90;;;;;;5015347;28;20022;-50
2021/05/21 00:04:31;;;;;;;55.42;51.13;;;14.00;99.90;;;;;;4997505;28;20029;-51
2021/05/21 00:06:59;;;;;;;60.75;56.28;;;14.20;99.90;;;;;;5015450;28;20037;-54
2021/05/21 00:09:26;;;;;;;57.78;53.13;;;14.40;99.90;;;;;;5015110;28;20025;-53
2021/05/21 00:11:53;;;;;;;56.47;52.33;;;14.60;99.90;;;;;;5015081;28;20485;-50
2021/05/21 00:14:21;;;;;;;55.60;51.55;;;14.80;99.90;;;;;;5014982;28;20117;-52
2021/05/21 00:16:48;;;;;;;54.80;50.50;;;14.90;99.90;;;;;;5014956;28;20387;-53
2021/05/21 00:19:18;;;;;;;54.10;49.85;;;15.00;99.90;;;;;;4997179;28;20088;-49
2021/05/21 00:21:49;;;;;;;55.38;51.25;;;15.10;99.90;;;;;;5015151;28;20048;-51
2021/05/21 00:24:16;;;;;;;54.83;50.60;;;15.20;99.90;;;;;;4997189;28;20076;-51
2021/05/21 00:26:43;;;;;;;55.25;50.85;;;15.50;99.90;;;;;;5014750;28;20030;-49
2021/05/21 00:29:11;;;;;;;55.10;50.53;;;15.60;99.90;;;;;;5014767;28;20076;-51
2021/05/21 00:31:38;;;;;;;56.95;52.22;;;15.90;99.90;;;;;;5014249;28;20414;-48
2021/05/21 00:34:08;;;;;;;55.35;50.92;;;16.00;99.90;;;;;;5014677;28;20092;-50
2021/05/21 00:36:35;;;;;;;54.47;50.08;;;16.20;99.90;;;;;;5014709;28;20498;-56
2021/05/21 00:39:04;;;;;;;53.75;49.53;;;16.20;99.90;;;;;;5014641;28;20028;-54
2021/05/21 00:41:32;;;;;;;52.75;48.53;;;16.20;99.90;;;;;;5014594;28;20415;-57
2021/05/21 00:43:59;;;;;;;50.25;46.28;;;16.00;99.90;;;;;;5014429;28;20026;-56
2021/05/21 00:46:27;;;;;;;49.08;44.92;;;16.10;99.90;;;;;;5014603;28;20026;-56
2021/05/21 00:48:54;;;;;;;55.67;50.67;;;16.00;99.90;;;;;;5014453;28;20080;-51
2021/05/21 00:51:22;;;;;;;56.30;51.55;;;16.10;99.90;;;;;;5014368;28;20042;-56
2021/05/21 00:53:51;;;;;;;56.15;52.08;;;16.10;99.90;;;;;;5014173;28;20030;-54
2021/05/21 00:56:19;;;;;;;52.97;48.75;;;16.00;99.90;;;;;;5014378;28;20026;-55
2021/05/21 00:58:46;;;;;;;56.10;51.65;;;16.10;99.90;;;;;;5014228;28;20474;-54
2021/05/21 01:01:13;;;;;;;55.25;50.72;;;16.10;99.90;;;;;;5014225;28;20501;-51
2021/05/21 01:03:41;;;;;;;53.55;48.88;;;16.20;99.90;;;;;;5014267;28;20030;-56
2021/05/21 01:06:10;;;;;;;55.60;50.35;;;16.30;99.90;;;;;;5014144;28;20070;-55
2021/05/21 01:08:39;;;;;;;52.70;48.00;;;16.30;99.90;;;;;;5014182;28;20026;-56
2021/05/21 01:11:08;;;;;;;52.05;47.85;;;16.20;99.90;;;;;;5013879;28;20101;-56
2021/05/21 01:13:36;;;;;;;56.63;51.90;;;16.10;99.90;;;;;;5013738;28;20022;-57
2021/05/21 01:16:05;;;;;;;56.55;51.70;;;16.00;99.90;;;;;;5014067;28;20088;-56
2021/05/21 01:18:32;;;;;;;55.75;50.72;;;15.90;99.90;;;;;;5013941;28;20033;-53
2021/05/21 01:21:00;;;;;;;56.30;51.60;;;15.70;99.90;;;;;;5013650;28;20022;-58
2021/05/21 01:23:27;;;;;;;54.65;49.92;;;15.70;99.90;;;;;;5014027;28;20025;-57
2021/05/21 01:25:55;;;;;;;55.55;50.30;;;15.70;99.90;;;;;;5013926;28;20033;-57
2021/05/21 01:28:22;;;;;;;56.90;52.15;;;15.70;99.90;;;;;;5013812;28;20030;-58
2021/05/21 01:30:51;;;;;;;59.47;54.05;;;15.70;99.90;;;;;;5013886;28;20426;-58
2021/05/21 01:33:19;;;;;;;62.50;56.47;;;15.60;99.90;;;;;;5013498;28;20041;-56
2021/05/21 01:35:46;;;;;;;64.70;58.40;;;15.50;99.90;;;;;;5013654;28;20065;-53
2021/05/21 01:38:14;;;;;;;65.30;59.33;;;15.50;99.90;;;;;;5013422;28;20033;-52
2021/05/21 01:40:46;;;;;;;64.93;58.63;;;15.50;99.90;;;;;;5013531;28;20102;-53
2021/05/21 01:43:13;;;;;;;65.10;59.05;;;15.70;99.90;;;;;;5012672;28;20526;-59
2021/05/21 01:45:41;;;;;;;61.95;56.25;;;15.70;99.90;;;;;;5013358;28;20048;-60
2021/05/21 01:48:11;;;;;;;62.70;57.50;;;15.90;99.90;;;;;;5013508;28;20117;-56
2021/05/21 01:50:39;;;;;;;60.70;55.25;;;15.80;99.90;;;;;;5013149;28;20042;-56
2021/05/21 01:53:06;;;;;;;60.78;55.78;;;15.90;99.90;;;;;;5013212;28;20053;-54
2021/05/21 01:55:34;;;;;;;62.53;57.30;;;15.90;99.90;;;;;;5013324;28;20026;-52
2021/05/21 01:58:02;;;;;;;62.97;57.33;;;15.80;99.90;;;;;;5013487;28;20044;-52
2021/05/21 02:00:30;;;;;;;64.70;59.30;;;15.80;99.90;;;;;;5013304;28;20018;-49
2021/05/21 02:02:57;;;;;;;62.90;57.83;;;15.80;99.90;;;;;;4995525;28;20026;-49
2021/05/21 02:05:24;;;;;;;63.42;58.08;;;15.80;99.90;;;;;;5013240;28;20105;-50
2021/05/21 02:07:52;;;;;;;66.07;60.45;;;15.90;99.90;;;;;;5013155;28;20109;-53
2021/05/21 02:10:19;;;;;;;63.42;58.03;;;15.80;99.90;;;;;;5013224;28;20390;-53
2021/05/21 02:12:47;;;;;;;62.47;57.47;;;15.80;99.90;;;;;;5013111;28;20080;-52
2021/05/21 02:15:15;;;;;;;65.13;59.38;;;16.10;99.90;;;;;;5013382;28;20030;-53
2021/05/21 02:17:42;;;;;;;59.60;54.33;;;16.20;99.90;;;;;;5013112;28;20022;-57
2021/05/21 02:20:12;;;;;;;62.28;56.83;;;16.40;99.90;;;;;;5013003;28;20391;-58
2021/05/21 02:22:40;;;;;;;64.22;58.15;;;16.50;99.90;;;;;;5013141;28;20030;-55
2021/05/21 02:25:09;;;;;;;67.88;60.78;;;16.70;99.90;;;;;;5012915;28;20505;-58
2021/05/21 02:27:36;;;;;;;70.22;63.55;;;16.60;99.90;;;;;;5013058;28;20022;-54
2021/05/21 02:30:05;;;;;;;66.07;59.08;;;16.60;99.90;;;;;;5013152;28;20058;-57
2021/05/21 02:32:33;;;;;;;62.25;56.70;;;16.60;99.90;;;;;;4995351;28;20116;-58
2021/05/21 02:35:00;;;;;;;60.22;54.67;;;16.50;99.90;;;;;;5012995;28;20440;-57
2021/05/21 02:37:28;;;;;;;63.72;56.80;;;16.40;99.90;;;;;;5013328;28;20014;-58
2021/05/21 02:39:55;;;;;;;68.65;60.88;;;16.30;99.90;;;;;;5012901;28;20019;-57
2021/05/21 02:42:22;;;;;;;56.33;51.13;;;16.30;99.90;;;;;;5012871;28;20029;-58
2021/05/21 02:44:50;;;;;;;58.70;53.65;;;16.20;99.90;;;;;;5012961;28;20026;-54
2021/05/21 02:47:17;;;;;;;58.72;52.97;;;16.20;99.90;;;;;;5012813;28;20026;-52
2021/05/21 02:49:44;;;;;;;58.97;54.17;;;16.20;99.90;;;;;;5012618;28;20041;-57
2021/05/21 02:52:12;;;;;;;62.67;57.58;;;16.00;99.90;;;;;;5013036;28;20033;-53
2021/05/21 02:54:39;;;;;;;63.38;57.17;;;15.90;99.90;;;;;;5013316;28;20124;-51
2021/05/21 02:57:07;;;;;;;62.28;56.72;;;15.90;99.90;;;;;;5016582;28;20458;-49
2021/05/21 02:59:34;;;;;;;90.80;73.78;;;15.80;99.90;;;;;;5016632;28;20018;-52
2021/05/21 03:02:07;;;;;;;59.72;54.22;;;15.90;99.90;;;;;;4998777;28;20079;-52
2021/05/21 03:04:34;;;;;;;63.53;57.42;;;16.00;99.90;;;;;;5016516;28;20398;-53
2021/05/21 03:07:02;;;;;;;61.10;55.78;;;16.10;99.90;;;;;;5016446;28;20029;-52
2021/05/21 03:09:29;;;;;;;62.72;57.22;;;16.10;99.90;;;;;;5016290;28;20040;-55
2021/05/21 03:11:56;;;;;;;63.92;58.03;;;16.00;99.90;;;;;;5016246;28;20045;-52
2021/05/21 03:14:24;;;;;;;63.17;57.30;;;15.80;99.90;;;;;;5016405;28;20018;-48
2021/05/21 03:16:51;;;;;;;68.55;62.15;;;15.70;99.90;;;;;;5016139;28;20120;-52
2021/05/21 03:19:18;;;;;;;64.00;58.03;;;15.60;99.90;;;;;;5016069;28;20045;-52
2021/05/21 03:21:46;;;;;;;62.15;56.58;;;15.60;99.90;;;;;;4998443;28;20022;-52
2021/05/21 03:24:13;;;;;;;61.58;55.80;;;15.60;99.90;;;;;;5016034;28;20092;-53
2021/05/21 03:26:40;;;;;;;61.00;55.10;;;15.50;99.90;;;;;;5015951;28;20025;-55
2021/05/21 03:29:08;;;;;;;59.95;53.30;;;15.30;99.90;;;;;;5016023;28;20109;-55
2021/05/21 03:31:35;;;;;;;56.78;51.08;;;15.30;99.90;;;;;;4998251;28;20034;-57
2021/05/21 03:34:03;;;;;;;57.08;51.90;;;15.30;99.90;;;;;;5015875;28;20061;-56
2021/05/21 03:36:30;;;;;;;59.83;53.92;;;15.20;99.90;;;;;;5015869;28;20035;-53
2021/05/21 03:38:58;;;;;;;60.58;54.67;;;15.20;99.90;;;;;;5015842;28;20022;-54
2021/05/21 03:41:25;;;;;;;57.92;52.42;;;15.10;99.90;;;;;;5015609;28;20414;-50
2021/05/21 03:43:52;;;;;;;59.40;53.75;;;15.20;99.90;;;;;;5015663;28;20386;-55
2021/05/21 03:46:20;;;;;;;63.47;57.53;;;15.20;99.90;;;;;;5015445;28;20427;-53
2021/05/21 03:48:47;;;;;;;63.65;57.85;;;15.30;99.90;;;;;;5015642;28;20441;-54
2021/05/21 03:51:35;;;;;;;63.08;57.38;;;15.40;99.90;;;;;;5015408;28;20053;-56
2021/05/21 03:54:03;;;;;;;62.28;56.72;;;15.50;99.90;;;;;;5015355;28;20026;-53
2021/05/21 03:56:30;;;;;;;66.78;60.70;;;15.60;99.90;;;;;;5015467;28;20109;-53
2021/05/21 03:59:00;;;;;;;73.47;67.20;;;15.70;99.90;;;;;;5015461;28;20025;-56
2021/05/21 04:01:28;;;;;;;68.15;62.25;;;15.80;99.90;;;;;;5015785;28;20029;-55
2021/05/21 04:03:59;;;;;;;60.00;54.42;;;15.80;99.90;;;;;;4998106;28;20041;-56
2021/05/21 04:06:26;;;;;;;60.13;54.30;;;15.80;99.90;;;;;;5013470;28;20402;-53
2021/05/21 04:08:54;;;;;;;63.60;57.97;;;15.90;99.90;;;;;;5015046;28;20105;-51
2021/05/21 04:11:21;;;;;;;63.45;57.03;;;16.00;99.90;;;;;;5014938;28;20025;-55
2021/05/21 04:13:49;;;;;;;61.97;55.83;;;16.20;99.90;;;;;;4997328;28;20042;-58
2021/05/21 04:16:16;;;;;;;64.75;58.70;;;16.10;99.90;;;;;;5015025;28;20090;-58
2021/05/21 04:18:43;;;;;;;63.85;57.67;;;16.00;99.90;;;;;;4997427;28;20437;-58
2021/05/21 04:21:11;;;;;;;64.97;58.47;;;16.00;99.90;;;;;;5014868;28;20084;-56
2021/05/21 04:23:41;;;;;;;59.80;54.20;;;15.90;99.90;;;;;;5014811;28;20030;-56
2021/05/21 04:26:08;;;;;;;59.30;53.88;;;15.80;99.90;;;;;;5014801;28;20080;-57
2021/05/21 04:28:36;;;;;;;60.40;54.85;;;15.80;99.90;;;;;;5014797;28;20022;-57
2021/05/21 04:31:03;;;;;;;61.00;55.20;;;15.80;99.90;;;;;;5014769;28;20145;-57
2021/05/21 04:33:30;;;;;;;61.75;55.80;;;15.80;99.90;;;;;;5014657;28;20033;-57
2021/05/21 04:35:58;;;;;;;60.58;54.80;;;15.80;99.90;;;;;;5014608;28;20026;-57
2021/05/21 04:38:25;;;;;;;63.90;57.97;;;15.80;99.90;;;;;;5014733;28;20390;-57
2021/05/21 04:40:53;;;;;;;61.20;55.83;;;15.90;99.90;;;;;;5014645;28;20014;-59
2021/05/21 04:43:25;;;;;;;59.72;54.42;;;15.90;99.90;;;;;;4996937;28;20034;-60
2021/05/21 04:45:54;;;;;;;62.70;57.00;;;15.90;99.90;;;;;;5014407;28;20033;-56
2021/05/21 04:48:22;;;;;;;61.15;55.25;;;16.00;99.90;;;;;;5014472;28;20030;-55
2021/05/21 04:50:50;;;;;;;62.45;57.28;;;16.00;99.90;;;;;;5014619;28;20099;-52
2021/05/21 04:53:18;;;;;;;59.55;54.83;;;16.10;99.90;;;;;;5014338;28;20030;-53
2021/05/21 04:55:46;;;;;;;61.35;55.85;;;16.10;99.90;;;;;;5014205;28;20479;-52
2021/05/21 04:58:14;;;;;;;58.08;53.00;;;16.10;99.90;;;;;;5014357;28;20493;-54
2021/05/21 05:00:41;;;;;;;56.15;51.45;;;16.10;99.90;;;;;;5014270;28;20020;-56
2021/05/21 05:03:12;;;;;;;59.13;54.00;;;16.20;99.90;;;;;;5013852;28;20110;-56
2021/05/21 05:05:39;;;;;;;59.63;54.50;;;16.10;99.90;;;;;;5014463;28;20076;-59
2021/05/21 05:08:09;;;;;;;61.47;55.58;;;16.10;99.90;;;;;;5014078;28;20061;-55
2021/05/21 05:10:36;;;;;;;56.17;50.65;;;16.10;99.90;;;;;;5013877;28;20088;-54
2021/05/21 05:13:04;;;;;;;53.60;49.00;;;16.10;99.90;;;;;;5013822;28;20057;-55
2021/05/21 05:15:35;;;;;;;49.72;45.28;;;16.00;99.90;;;;;;5013970;28;20026;-56
2021/05/21 05:18:04;;;;;;;56.47;51.67;;;16.00;99.90;;;;;;5013844;28;20023;-56
2021/05/21 05:20:32;;;;;;;51.45;47.17;;;16.00;99.90;;;;;;5013557;28;20367;-54
2021/05/21 05:22:59;;;;;;;48.88;44.33;;;16.00;99.90;;;;;;5013841;28;20478;-56
2021/05/21 05:25:27;;;;;;;51.55;47.45;;;16.00;99.90;;;;;;5013596;28;20032;-55
2021/05/21 05:27:56;;;;;;;53.58;49.15;;;15.90;99.90;;;;;;5013759;28;20053;-54
2021/05/21 05:30:24;;;;;;;58.00;53.05;;;15.90;99.90;;;;;;5013775;28;20049;-57
2021/05/21 05:32:52;;;;;;;52.95;49.35;;;15.90;99.90;;;;;;5013479;28;20113;-55
2021/05/21 05:35:19;;;;;;;52.03;47.65;;;15.90;99.90;;;;;;5013800;28;20060;-53
2021/05/21 05:37:47;;;;;;;52.53;48.33;;;15.90;99.90;;;;;;5013663;28;20026;-55
2021/05/21 05:40:14;;;;;;;48.72;44.45;;;15.80;99.90;;;;;;5013458;28;20541;-56
2021/05/21 05:42:42;;;;;;;45.63;41.92;;;15.80;99.90;;;;;;5013680;28;20026;-52
2021/05/21 05:45:10;;;;;;;48.15;44.35;;;15.80;99.90;;;;;;5013745;28;20026;-51
2021/05/21 05:47:37;;;;;;;45.30;41.83;;;15.80;99.90;;;;;;5013595;28;20032;-53
2021/05/21 05:50:05;;;;;;;44.97;41.70;;;15.90;99.90;;;;;;5013149;28;20125;-56
2021/05/21 05:52:33;;;;;;;42.40;38.85;;;15.90;99.90;;;;;;5013187;28;20049;-54
2021/05/21 05:55:00;;;;;;;40.17;36.83;;;15.90;99.90;;;;;;4995993;28;20022;-56
2021/05/21 05:57:27;;;;;;;37.05;33.75;;;15.90;99.90;;;;;;5013304;28;20030;-55
2021/05/21 05:59:55;;;;;;;40.55;37.38;;;15.90;99.90;;;;;;5013401;28;20106;-56
2021/05/21 06:02:22;;;;;;;38.92;35.70;;;16.00;99.90;;;;;;5013258;28;20033;-55
2021/05/21 06:04:50;;;;;;;37.65;34.17;;;15.90;99.90;;;;;;5013254;28;20026;-52
2021/05/21 06:07:17;;;;;;;43.15;38.97;;;15.90;99.90;;;;;;5013140;28;20017;-54
2021/05/21 06:09:44;;;;;;;39.90;36.28;;;15.90;99.90;;;;;;5013192;28;20018;-55
2021/05/21 06:12:12;;;;;;;38.65;34.95;;;15.80;99.90;;;;;;5012917;28;20124;-57
2021/05/21 06:14:39;;;;;;;41.95;38.28;;;15.80;99.90;;;;;;5013338;28;20116;-58
2021/05/21 06:17:06;;;;;;;39.97;36.95;;;15.80;99.90;;;;;;5013196;28;20014;-54
2021/05/21 06:19:34;;;;;;;39.05;35.90;;;15.80;99.90;;;;;;5013042;28;20025;-56
2021/05/21 06:22:01;;;;;;;41.95;38.30;;;15.80;99.90;;;;;;5012948;28;20438;-56
2021/05/21 06:24:29;;;;;;;38.28;35.03;;;15.80;99.90;;;;;;5013327;28;20026;-57
2021/05/21 06:29:42;;;;;;;42.08;38.45;;;15.80;99.90;;;;;;5013960;28;20029;-54
2021/05/21 06:32:09;;;;;;;37.53;34.50;;;15.70;99.90;;;;;;5017053;28;20030;-53
2021/05/21 06:34:36;;;;;;;38.63;35.17;;;15.70;99.90;;;;;;5016876;28;20517;-51
2021/05/21 06:37:04;;;;;;;35.75;32.70;;;15.70;99.90;;;;;;5016861;28;20053;-53
2021/05/21 06:39:31;;;;;;;35.58;32.67;;;15.70;99.90;;;;;;5016811;28;20449;-54
2021/05/21 06:41:59;;;;;;;38.10;35.38;;;15.70;99.90;;;;;;5016698;28;20018;-55
2021/05/21 06:44:27;;;;;;;35.45;32.15;;;15.70;99.90;;;;;;5016815;28;20057;-55
2021/05/21 06:46:58;;;;;;;34.88;32.28;;;15.70;99.90;;;;;;5016726;28;20033;-53
2021/05/21 06:49:25;;;;;;;;;;;15.70;99.90;;;;;;5016762;28;20030;-56
2021/05/21 06:51:52;;;;;;;35.92;33.15;;;15.70;99.90;;;;;;5016689;28;19909;-56
2021/05/21 06:54:20;;;;;;;35.85;33.00;;;15.60;99.90;;;;;;4998768;28;20490;-56
2021/05/21 06:56:47;;;;;;;33.55;30.75;;;15.60;99.90;;;;;;5016533;28;20104;-52
2021/05/21 06:59:14;;;;;;;30.35;27.85;;;15.70;99.90;;;;;;5016425;28;20080;-56
2021/05/21 07:01:42;;;;;;;30.58;27.85;;;15.70;99.90;;;;;;5016270;28;20079;-54
2021/05/21 07:04:09;;;;;;;29.80;27.50;;;15.70;99.90;;;;;;5016214;28;20033;-54
2021/05/21 07:06:36;;;;;;;33.58;30.63;;;15.70;99.90;;;;;;5016144;28;20506;-54
2021/05/21 07:09:04;;;;;;;32.03;29.58;;;15.60;99.90;;;;;;5016300;28;20025;-54
2021/05/21 07:11:32;;;;;;;32.75;30.50;;;15.60;99.90;;;;;;5016214;28;20482;-54
2021/05/21 07:13:59;;;;;;;33.08;30.17;;;15.50;99.90;;;;;;5016144;28;20449;-53
2021/05/21 07:16:27;;;;;;;30.83;28.23;;;15.60;99.90;;;;;;5016070;28;20033;-53
2021/05/21 07:18:54;;;;;;;31.02;28.05;;;15.70;99.90;;;;;;5015869;28;20025;-50
2021/05/21 07:21:22;;;;;;;30.25;27.83;;;15.70;99.90;;;;;;5015746;28;20102;-55
2021/05/21 07:23:52;;;;;;;29.52;27.20;;;15.60;99.90;;;;;;5015990;28;20022;-52
2021/05/21 07:26:20;;;;;;;30.25;27.90;;;15.60;99.90;;;;;;4998447;28;20057;-52
2021/05/21 07:29:12;;;;;;;30.73;28.15;;;15.60;99.90;;;;;;5016174;28;20105;-52
2021/05/21 07:31:47;;;;;;;32.28;29.63;;;15.60;99.90;;;;;;5015371;28;20041;-54
2021/05/21 07:34:17;;;;;;;32.15;29.48;;;15.50;99.90;;;;;;5015962;28;20056;-51
2021/05/21 07:36:48;;;;;;;31.90;29.00;;;15.50;99.90;;;;;;5015743;28;20029;-51
2021/05/21 07:39:16;;;;;;;31.90;29.55;;;15.50;99.90;;;;;;5016061;28;20029;-51
2021/05/21 07:41:44;;;;;;;32.53;29.88;;;15.50;99.90;;;;;;5014278;28;20029;-54
2021/05/21 07:44:16;;;;;;;31.45;28.60;;;15.50;99.90;;;;;;5015743;28;20364;-52
2021/05/21 07:46:52;;;;;;;31.25;28.77;;;15.60;99.90;;;;;;4997804;28;20026;-53
2021/05/21 07:49:24;;;;;;;31.73;29.23;;;15.50;99.90;;;;;;5015303;28;20026;-54
2021/05/21 07:51:53;;;;;;;29.15;26.95;;;15.50;99.90;;;;;;5015230;28;20045;-55
2021/05/21 07:54:24;;;;;;;31.02;28.48;;;15.50;99.90;;;;;;5015281;28;20053;-53
2021/05/21 07:56:57;;;;;;;30.48;28.02;;;15.50;99.90;;;;;;5015384;28;20022;-53
2021/05/21 07:59:25;;;;;;;32.20;29.58;;;15.50;99.90;;;;;;5015415;28;20036;-55
2021/05/21 08:01:55;;;;;;;31.83;29.50;;;15.50;99.90;;;;;;5015370;28;20380;-54
2021/05/21 08:04:23;;;;;;;31.60;29.10;;;15.40;99.90;;;;;;5015212;28;20025;-51
2021/05/21 08:06:53;;;;;;;32.00;29.60;;;15.40;99.90;;;;;;5015051;28;20037;-53
2021/05/21 08:09:21;;;;;;;33.80;30.75;;;15.40;99.90;;;;;;5015135;28;20033;-51
2021/05/21 08:11:52;;;;;;;31.90;29.60;;;15.40;99.90;;;;;;5014751;28;20041;-50
2021/05/21 08:14:19;;;;;;;31.58;29.13;;;15.50;99.90;;;;;;4997590;28;20494;-55
2021/05/21 08:16:47;;;;;;;30.08;27.85;;;15.40;99.90;;;;;;5014970;28;20080;-55
2021/05/21 08:19:14;;;;;;;29.35;27.05;;;15.40;99.90;;;;;;5014695;28;20021;-54
2021/05/21 08:21:42;;;;;;;29.42;26.83;;;15.50;99.90;;;;;;5014678;28;20018;-50
2021/05/21 08:24:10;;;;;;;29.10;26.77;;;15.40;99.90;;;;;;5014970;28;20068;-53
2021/05/21 08:26:37;;;;;;;31.65;28.75;;;15.30;99.90;;;;;;5014819;28;20018;-55
2021/05/21 08:29:04;;;;;;;30.38;27.80;;;15.20;99.90;;;;;;5014656;28;20022;-55
2021/05/21 08:31:32;;;;;;;31.58;28.67;;;15.10;99.90;;;;;;4997168;28;20479;-55
2021/05/21 08:33:59;;;;;;;30.13;27.67;;;15.00;99.90;;;;;;5014487;28;20049;-52
2021/05/21 08:36:26;;;;;;;31.52;28.95;;;14.90;99.90;;;;;;5014579;28;20088;-52
2021/05/21 08:38:54;;;;;;;32.80;29.98;;;14.70;99.90;;;;;;5014380;28;20026;-54
2021/05/21 08:41:29;;;;;;;32.70;30.25;;;14.60;99.90;;;;;;5014528;28;20375;-52
2021/05/21 08:43:58;;;;;;;33.35;30.85;;;14.40;99.90;;;;;;5014255;28;20030;-53
2021/05/21 08:46:27;;;;;;;35.67;32.97;;;14.40;99.90;;;;;;4996683;28;20025;-54
2021/05/21 08:49:02;;;;;;;36.50;33.67;;;14.40;99.90;;;;;;5014281;28;20030;-53
2021/05/21 08:51:30;;;;;;;34.95;32.10;;;14.20;99.90;;;;;;5014213;28;20104;-53
2021/05/21 08:53:58;;;;;;;36.60;33.80;;;14.30;99.90;;;;;;5013928;28;20033;-54
2021/05/21 08:56:26;;;;;;;36.92;34.20;;;14.30;99.90;;;;;;5014256;28;20498;-52
2021/05/21 08:58:53;;;;;;;35.67;32.90;;;14.30;99.90;;;;;;5014046;28;20018;-50
2021/05/21 09:01:24;;;;;;;36.45;33.88;;;14.20;99.90;;;;;;5014059;28;20383;-48
2021/05/21 09:04:00;;;;;;;35.67;32.72;;;14.10;99.90;;;;;;5013921;28;20026;-51
2021/05/21 09:06:30;;;;;;;37.92;34.85;;;13.90;99.90;;;;;;5013877;28;20026;-52
2021/05/21 09:08:59;;;;;;;36.85;33.88;;;13.80;99.90;;;;;;5014188;28;20099;-52
2021/05/21 09:11:45;;;;;;;36.95;33.97;;;13.70;99.90;;;;;;5014323;28;20030;-54
2021/05/21 09:14:22;;;;;;;38.33;35.60;;;13.60;99.90;;;;;;5013825;28;20586;-52
2021/05/21 09:16:50;;;;;;;40.30;37.00;;;13.50;99.90;;;;;;5013994;28;20433;-53
2021/05/21 09:19:18;;;;;;;40.15;37.08;;;13.50;99.90;;;;;;5013776;28;20018;-53
2021/05/21 09:22:06;;;;;;;40.60;37.20;;;13.40;99.90;;;;;;5013851;28;20024;-55
2021/05/21 09:24:37;;;;;;;39.90;36.75;;;13.40;99.90;;;;;;5013817;28;20022;-54
2021/05/21 09:27:06;;;;;;;41.58;38.30;;;13.30;99.90;;;;;;5013884;28;20392;-55
2021/05/21 09:29:44;;;;;;;40.60;37.60;;;13.30;99.90;;;;;;5013780;28;20096;-54
2021/05/21 09:32:29;;;;;;;40.30;37.05;;;13.20;99.90;;;;;;5013848;28;20029;-53
2021/05/21 09:35:12;;;;;;;40.45;37.47;;;13.50;99.90;;;;;;5013424;28;20030;-54
2021/05/21 09:37:46;;;;;;;41.22;37.60;;;13.40;99.90;;;;;;5013590;28;20022;-52
2021/05/21 09:40:19;;;;;;;40.08;36.92;;;13.40;99.90;;;;;;5013548;28;20584;-53
2021/05/21 09:43:00;;;;;;;39.95;36.83;;;13.40;99.90;;;;;;5013257;28;20030;-54
2021/05/21 09:45:39;;;;;;;41.25;38.25;;;13.20;99.90;;;;;;5013556;28;20029;-53
2021/05/21 09:48:11;;;;;;;42.30;38.83;;;13.20;99.90;;;;;;5013520;28;20030;-53
2021/05/21 09:50:48;;;;;;;43.50;40.35;;;13.10;99.90;;;;;;5013502;28;20038;-52
2021/05/21 09:53:20;;;;;;;43.72;40.08;;;13.10;99.90;;;;;;5013361;28;20030;-55
2021/05/21 09:56:00;;;;;;;45.40;42.13;;;13.10;99.90;;;;;;5013227;28;20025;-53
2021/05/21 09:58:47;;;;;;;46.23;42.17;;;13.10;99.90;;;;;;5013255;28;20439;-54
2021/05/21 10:01:18;;;;;;;46.35;42.50;;;13.00;99.90;;;;;;5013257;28;20423;-54
2021/05/21 10:03:53;;;;;;;48.05;44.33;;;13.10;99.90;;;;;;5012888;28;20030;-52
2021/05/21 10:06:25;;;;;;;47.58;43.78;;;13.10;99.90;;;;;;5012842;28;20025;-55
2021/05/21 10:08:56;;;;;;;48.63;44.83;;;12.90;99.90;;;;;;5013252;28;20026;-55
2021/05/21 10:11:25;;;;;;;46.78;42.97;;;12.80;99.90;;;;;;5013069;28;20034;-55
2021/05/21 10:13:53;;;;;;;46.67;43.08;;;12.70;99.90;;;;;;5013275;28;20485;-55
2021/05/21 10:16:22;;;;;;;47.17;43.70;;;12.70;99.90;;;;;;5012901;28;20018;-54
2021/05/21 10:18:54;;;;;;;47.67;44.22;;;12.60;99.90;;;;;;5012887;28;20029;-56
2021/05/21 10:21:22;;;;;;;48.45;44.28;;;12.50;99.90;;;;;;5012791;28;20030;-54
2021/05/21 10:24:15;;;;;;;47.85;44.30;;;12.50;99.90;;;;;;5012841;28;20037;-54
2021/05/21 10:26:44;;;;;;;47.97;43.78;;;12.40;99.90;;;;;;5013008;28;20022;-55
2021/05/21 10:29:22;;;;;;;47.28;43.25;;;12.30;99.90;;;;;;5013009;28;20034;-50
2021/05/21 10:31:54;;;;;;;50.63;46.25;;;12.30;99.90;;;;;;5012872;28;20022;-55
2021/05/21 10:37:36;;;;;;;49.00;45.05;;;12.20;99.90;;;;;;5003881;28;20037;-56
2021/05/21 10:56:17;;;;;;;47.70;43.40;;;12.00;99.90;;;;;;3565593;28;20124;-63
2021/05/21 10:58:45;;;;;;;49.42;45.17;;;12.00;99.90;;;;;;5013188;28;20113;-64
2021/05/21 11:01:15;;;;;;;48.15;44.15;;;12.00;99.90;;;;;;5012506;28;20034;-64
2021/05/21 11:03:57;;;;;;;49.80;45.72;;;12.10;99.90;;;;;;5012551;28;20058;-64
2021/05/21 11:06:26;;;;;;;51.60;47.20;;;12.00;99.90;;;;;;5012593;28;20018;-65
2021/05/21 11:17:26;;;;;;;52.25;47.78;;;11.90;99.90;;;;;;5015995;28;20071;-63
2021/05/21 11:20:01;;;;;;;51.00;46.65;;;11.90;99.90;;;;;;5016016;28;20390;-64
2021/05/21 11:22:38;;;;;;;50.03;45.92;;;12.00;99.90;;;;;;5016090;28;20026;-64
2021/05/21 11:25:13;;;;;;;52.08;47.03;;;12.10;99.90;;;;;;5016210;28;20026;-65
2021/05/21 11:27:40;;;;;;;49.00;45.13;;;12.20;99.90;;;;;;5015877;28;20026;-65
2021/05/21 11:30:10;;;;;;;52.15;47.50;;;12.20;99.90;;;;;;5015895;28;20026;-64
2021/05/21 11:32:40;;;;;;;51.97;47.45;;;12.20;99.90;;;;;;5015737;28;20022;-63
2021/05/21 11:35:09;;;;;;;51.85;47.08;;;12.20;99.90;;;;;;5015573;28;20026;-65
2021/05/21 11:37:39;;;;;;;50.67;46.08;;;12.30;99.90;;;;;;5007983;28;20022;-64
2021/05/21 11:40:08;;;;;;;50.10;45.80;;;12.30;99.90;;;;;;4998144;28;20471;-62
2021/05/21 11:42:36;;;;;;;52.53;48.25;;;12.30;99.90;;;;;;5015635;28;20259;-62
2021/05/21 11:45:06;;;;;;;53.40;48.47;;;12.30;99.90;;;;;;5015632;28;20022;-63
2021/05/21 11:47:40;;;;;;;53.10;48.35;;;12.30;99.90;;;;;;5015533;28;20021;-63
2021/05/21 11:50:09;;;;;;;52.08;47.53;;;12.40;99.90;;;;;;5015351;28;20026;-62
2021/05/21 11:52:37;;;;;;;53.72;49.13;;;12.40;99.90;;;;;;5015313;28;20018;-62
2021/05/21 11:55:05;;;;;;;55.58;50.15;;;12.40;99.90;;;;;;5015543;28;20475;-63
2021/05/21 11:57:32;;;;;;;54.50;49.50;;;12.40;99.90;;;;;;5015127;28;20042;-63
2021/05/21 12:00:00;;;;;;;54.15;49.53;;;12.40;99.90;;;;;;5015402;28;20025;-63
2021/05/21 12:02:27;;;;;;;54.60;49.97;;;12.40;99.90;;;;;;5015277;28;20109;-62
2021/05/21 12:04:55;;;;;;;57.50;52.60;;;12.30;99.90;;;;;;5015266;28;20045;-63
2021/05/21 12:07:25;;;;;;;55.55;50.85;;;12.30;99.90;;;;;;5015180;28;20023;-64
2021/05/21 12:09:54;;;;;;;55.67;51.13;;;12.30;99.90;;;;;;5015155;28;20088;-64
2021/05/21 12:12:27;;;;;;;53.28;48.92;;;12.30;99.90;;;;;;5015091;28;20494;-64
2021/05/21 12:15:26;;;;;;;52.38;47.70;;;12.20;99.90;;;;;;5014881;28;20029;-63
2021/05/21 12:17:54;;;;;;;53.05;48.38;;;12.20;99.90;;;;;;4982369;28;20088;-64
2021/05/21 12:20:22;;;;;;;57.22;52.25;;;12.10;99.90;;;;;;5014754;28;20045;-64
2021/05/21 12:23:05;;;;;;;52.15;47.92;;;12.10;99.90;;;;;;5014900;28;20482;-65
2021/05/21 12:25:34;;;;;;;53.08;48.63;;;12.10;99.90;;;;;;5014992;28;20410;-63
2021/05/21 12:28:02;;;;;;;54.92;49.95;;;12.00;99.90;;;;;;5014201;28;20368;-64
2021/05/21 12:30:31;;;;;;;54.00;49.30;;;12.00;99.90;;;;;;5014946;28;20018;-63
2021/05/21 12:33:00;;;;;;;53.28;48.63;;;11.90;99.90;;;;;;4997477;28;20057;-64
2021/05/21 12:35:42;;;;;;;52.60;47.50;;;11.90;99.90;;;;;;5014772;28;20037;-63
2021/05/21 12:38:12;;;;;;;51.70;47.42;;;11.90;99.90;;;;;;5014643;28;20046;-64
2021/05/21 12:40:54;;;;;;;50.80;46.28;;;11.90;99.90;;;;;;4997680;28;20483;-64
2021/05/21 12:43:22;;;;;;;50.88;46.88;;;11.80;99.90;;;;;;4997303;28;20038;-64
2021/05/21 12:46:03;;;;;;;51.45;47.10;;;11.80;99.90;;;;;;5014627;28;20033;-63
2021/05/21 12:48:43;;;;;;;;;;;11.80;99.90;;;;;;5014848;28;20501;-64
2021/05/21 12:51:22;;;;;;;52.92;48.60;;;11.70;99.90;;;;;;5014280;28;19952;-64
2021/05/21 12:53:51;;;;;;;55.50;50.28;;;11.70;99.90;;;;;;4996662;28;20037;-64
2021/05/21 12:56:36;;;;;;;53.92;48.97;;;11.70;99.90;;;;;;4996462;28;20073;-65
2021/05/21 12:59:11;;;;;;;53.38;48.65;;;11.60;99.90;;;;;;5014175;28;20036;-61
2021/05/21 13:01:42;;;;;;;53.28;48.72;;;11.60;99.90;;;;;;5014073;28;20033;-62
2021/05/21 13:04:14;;;;;;;53.20;48.67;;;11.60;99.90;;;;;;5014121;28;20101;-62
2021/05/21 13:06:43;;;;;;;53.58;48.88;;;11.60;99.90;;;;;;5014027;28;20030;-61
2021/05/21 13:09:12;;;;;;;54.83;49.75;;;11.50;99.90;;;;;;5013818;28;20018;-62
2021/05/21 13:12:00;;;;;;;53.67;48.92;;;11.50;99.90;;;;;;5013988;28;20022;-61